Latest Weather Observations for Mandurah

IDW60801

Issued at 11:54 pm WST Friday 28 February 2020 (issued every 10 minutes, with the page automatically refreshed every 10 minutes)

About weather observations | Map of weather stations | Latest weather observations for WA | Other Formats
Station Details ID: 009977 Name: MANDURAH Lat: -32.52 Lon: 115.71 Height: 3.0 m
Data from the previous 72 hours. | See also: Recent months at Mandurah
Date/Time
WST
Temp
°C
App
Temp
°C
Dew
Point
°C
Rel
Hum
%
Delta-T
°C
Wind Press
QNH
hPa
Press
MSL
hPa
Rain since
9am
mm
Dir  Spd
km/h
Gust
km/h
Spd
kts
Gust
kts
28/11:30pm 22.9 25.7 20.8 88 1.4 SW 7 13 4 7 1007.7 1007.7 0.0
28/11:00pm 23.1 26.5 21.0 88 1.4 W 4 6 2 3 1007.7 1007.7 0.0
28/10:30pm 23.1 27.1 20.6 86 1.6 CALM 0 0 0 0 1007.9 1007.9 0.0
28/10:00pm 23.4 27.2 20.9 86 1.6 N 2 4 1 2 1008.1 1008.1 0.0
28/09:30pm 23.7 27.4 21.4 87 1.5 N 4 4 2 2 1008.2 1008.2 0.0
28/09:00pm 23.8 27.1 21.5 87 1.5 N 6 6 3 3 1008.2 1008.2 0.0
28/08:30pm 23.8 27.0 21.3 86 1.6 N 6 7 3 4 1008.0 1008.0 0.0
28/08:00pm 24.0 26.9 21.1 84 1.9 N 7 9 4 5 1007.9 1007.9 0.0
28/07:30pm 24.1 26.9 20.8 82 2.2 NNW 7 11 4 6 1007.6 1007.6 0.0
28/07:00pm 24.2 26.5 20.7 81 2.3 NW 9 13 5 7 1007.2 1007.2 0.0
28/06:30pm 24.6 25.9 20.9 80 2.4 WNW 15 19 8 10 1006.6 1006.6 0.0
28/06:00pm 25.2 26.2 21.1 78 2.7 WNW 17 20 9 11 1006.1 1006.1 0.0
28/05:30pm 27.1 28.5 20.4 66 4.4 NW 13 20 7 11 1005.7 1005.7 0.0
28/05:00pm 28.5 28.1 19.4 57 5.9 NNE 20 24 11 13 1005.7 1005.7 0.0
28/04:30pm 28.2 27.4 19.2 58 5.8 NNE 22 32 12 17 1005.6 1005.6 0.0
28/04:00pm 28.2 27.5 19.4 59 5.7 NNE 22 28 12 15 1005.7 1005.7 0.0
28/03:30pm 28.3 27.4 19.0 57 6.0 NNE 22 37 12 20 1005.7 1005.7 0.0
28/03:00pm 28.5 26.1 19.2 57 6.0 NE 30 43 16 23 1005.7 1005.7 0.0
28/02:30pm 28.9 26.3 18.7 54 6.6 NE 30 43 16 23 1005.7 1005.7 0.0
28/02:00pm 29.1 26.4 17.6 50 7.3 ENE 28 43 15 23 1005.3 1005.3 0.0
28/01:32pm 28.6 25.1 17.8 52 6.9 ENE 33 52 18 28 1005.5 1005.5 0.0
28/01:30pm 28.3 24.3 17.5 52 6.8 ENE 35 52 19 28 1005.5 1005.5 0.0
28/01:00pm 28.3 22.3 17.8 53 6.7 NE 46 69 25 37 1006.2 1006.2 0.0
28/12:30pm 28.3 23.9 17.5 52 6.8 ENE 37 56 20 30 1006.3 1006.3 0.0
28/12:10pm 27.6 22.4 17.5 54 6.4 NE 41 61 22 33 1006.9 1006.9 0.0
28/12:00pm 28.0 23.8 18.1 55 6.3 ENE 37 52 20 28 1006.8 1006.8 0.0
28/11:43am 27.4 22.5 17.3 54 6.3 NE 39 61 21 33 1007.2 1007.2 0.0
28/11:30am 27.9 23.9 17.7 53 6.4 NE 35 54 19 29 1007.5 1007.5 0.0
28/11:00am 26.5 21.0 17.6 58 5.6 NE 43 61 23 33 1008.0 1008.0 0.0
28/10:52am 26.4 21.6 17.5 58 5.6 NE 39 57 21 31 1008.0 1008.0 0.0
28/10:30am 25.6 23.4 17.8 62 4.9 NE 26 39 14 21 1007.8 1007.8 0.0
28/10:00am 25.5 20.6 17.2 60 5.2 NE 39 59 21 32 1007.9 1007.9 0.0
28/09:54am 25.6 21.1 17.3 60 5.2 NE 37 56 20 30 1008.1 1008.1 0.0
28/09:45am 25.6 21.7 17.0 59 5.3 NE 33 50 18 27 1007.8 1007.8 0.0
28/09:30am 24.9 23.4 17.6 64 4.6 NE 22 30 12 16 1007.8 1007.8 0.0
28/09:00am 24.6 22.0 17.8 66 4.3 NE 28 39 15 21 1007.9 1007.9 5.4
28/08:30am 24.3 21.1 18.2 68 3.8 NE 32 44 17 24 1008.1 1008.1 5.4
28/08:01am 23.5 18.6 18.2 72 3.3 NE 41 59 22 32 1007.0 1007.0 5.4
28/08:00am 23.4 18.6 18.5 74 3.1 NE 41 56 22 30 1006.9 1006.9 5.4
28/07:52am 23.3 19.8 19.5 79 2.4 NNE 37 54 20 29 1007.0 1007.0 5.2
28/07:43am 25.6 22.2 17.8 62 4.9 NNE 32 54 17 29 1009.1 1009.1 0.8
28/07:40am 26.4 23.3 16.6 55 6.1 NE 28 43 15 23 1008.0 1008.0 0.8
28/07:30am 26.4 22.8 16.3 53 6.2 ENE 30 46 16 25 1005.7 1005.7 0.8
28/07:18am 26.2 23.2 16.7 56 5.9 ENE 28 46 15 25 1005.5 1005.5 0.8
28/07:00am 25.7 22.2 16.5 56 5.7 ENE 30 43 16 23 1005.4 1005.4 0.8
28/06:30am 26.0 23.6 16.5 55 5.9 ENE 24 39 13 21 1006.2 1006.2 0.8
28/06:00am 25.9 23.4 17.0 58 5.5 NE 26 41 14 22 1006.8 1006.8 0.8
28/05:30am 25.9 24.0 16.7 57 5.7 ENE 22 37 12 20 1006.2 1006.2 0.8
28/05:00am 25.3 24.3 16.7 59 5.3 ENE 17 35 9 19 1006.1 1006.1 0.8
28/04:30am 25.4 24.0 16.5 58 5.5 ENE 19 32 10 17 1005.9 1005.9 0.8
28/04:00am 25.8 23.8 16.4 56 5.8 ENE 22 35 12 19 1006.1 1006.1 0.8
28/03:30am 25.7 23.8 16.8 58 5.5 ENE 22 39 12 21 1006.1 1006.1 0.8
28/03:00am 25.8 23.9 16.6 56 5.7 ENE 22 39 12 21 1006.0 1006.0 0.8
28/02:30am 26.1 23.0 16.6 55 5.9 ENE 28 46 15 25 1006.6 1006.6 0.8
28/02:07am 26.3 23.1 16.3 54 6.2 ENE 28 54 15 29 1006.9 1006.9 0.8
28/02:00am 26.2 23.4 16.4 54 6.0 ENE 26 46 14 25 1007.1 1007.1 0.8
28/01:45am 26.4 22.7 16.1 53 6.3 ENE 30 48 16 26 1007.0 1007.0 0.8
28/01:30am 26.6 22.9 15.9 51 6.5 ENE 30 46 16 25 1007.0 1007.0 0.8
28/01:04am 26.5 23.1 15.8 51 6.5 ENE 28 50 15 27 1007.2 1007.2 0.6
28/01:00am 26.5 22.7 15.8 51 6.6 ENE 30 44 16 24 1007.2 1007.2 0.6
28/12:39am 26.5 22.7 15.8 51 6.5 ENE 30 52 16 28 1007.3 1007.3 0.6
28/12:30am 26.5 23.1 15.8 51 6.5 ENE 28 43 15 23 1007.6 1007.6 0.6
28/12:00am 26.0 24.0 16.5 55 5.9 ENE 22 37 12 20 1008.6 1008.6 0.6
 
Date/Time
WST
Temp
°C
App
Temp
°C
Dew
Point
°C
Rel
Hum
%
Delta-T
°C
Wind Press
QNH
hPa
Press
MSL
hPa
Rain since
9am
mm
Dir  Spd
km/h
Gust
km/h
Spd
kts
Gust
kts
27/11:30pm 25.8 24.3 16.4 56 5.8 E 19 30 10 16 1008.2 1008.2 0.6
27/11:00pm 25.7 24.3 16.5 56 5.7 E 19 28 10 15 1008.3 1008.3 0.6
27/10:30pm 25.1 23.9 17.1 61 5.0 ENE 19 35 10 19 1008.3 1008.3 0.6
27/10:00pm 24.8 23.6 17.5 64 4.6 E 20 30 11 16 1008.8 1008.8 0.6
27/09:30pm 24.8 24.6 17.5 64 4.6 ENE 15 26 8 14 1009.1 1009.1 0.6
27/09:00pm 24.6 23.9 17.3 64 4.5 ENE 17 32 9 17 1008.3 1008.3 0.6
27/08:30pm 24.3 22.8 17.8 67 4.1 ENE 22 37 12 20 1008.5 1008.5 0.6
27/08:00pm 24.1 23.0 17.8 68 3.9 ENE 20 32 11 17 1008.4 1008.4 0.6
27/07:30pm 24.3 23.2 17.8 67 4.1 ENE 20 32 11 17 1007.9 1007.9 0.4
27/07:00pm 25.1 23.4 17.3 62 4.9 ENE 22 37 12 20 1008.5 1008.5 0.0
27/06:30pm 25.8 25.0 17.2 59 5.4 ENE 17 28 9 15 1008.2 1008.2 0.0
27/06:00pm 26.7 25.4 16.9 55 6.1 ENE 19 35 10 19 1007.6 1007.6 0.0
27/05:30pm 26.4 23.3 17.5 58 5.6 ENE 30 46 16 25 1007.7 1007.7 0.0
27/05:00pm 25.5 22.4 17.4 61 5.1 ENE 30 44 16 24 1007.0 1007.0 0.0
27/04:39pm 25.4 22.2 18.1 64 4.6 ENE 32 50 17 27 1006.4 1006.4 0.0
27/04:36pm 25.3 21.7 17.7 62 4.8 ENE 33 50 18 27 1005.9 1005.9 0.0
27/04:34pm 25.5 21.4 18.2 64 4.6 NE 37 50 20 27 1006.4 1006.4 0.0
27/04:30pm 25.9 22.1 18.1 62 4.9 NE 35 46 19 25 1009.0 1009.0 0.0
27/04:00pm 26.4 25.6 17.2 57 5.8 ENE 17 30 9 16 1008.1 1008.1 0.0
27/03:35pm 26.2 23.5 17.6 59 5.4 ENE 28 52 15 28 1008.4 1008.4 0.0
27/03:30pm 26.3 24.3 17.4 58 5.6 ENE 24 39 13 21 1008.3 1008.3 0.0
27/03:00pm 26.4 24.8 17.5 58 5.6 ENE 22 32 12 17 1008.7 1008.7 0.0
27/02:30pm 27.3 24.6 17.5 55 6.2 ENE 28 41 15 22 1009.6 1009.6 0.0
27/02:00pm 27.6 25.7 17.7 54 6.3 ENE 24 41 13 22 1009.1 1009.1 0.0
27/01:30pm 27.4 25.5 17.6 55 6.2 ENE 24 35 13 19 1009.7 1009.7 0.0
27/01:00pm 27.4 26.5 17.8 55 6.1 E 19 32 10 17 1010.1 1010.1 0.0
27/12:30pm 26.5 26.0 17.8 58 5.5 E 17 28 9 15 1010.5 1010.5 0.0
27/12:00pm 26.5 25.5 17.6 58 5.6 E 19 30 10 16 1011.0 1011.0 0.0
27/11:30am 25.9 26.0 18.3 63 4.8 ESE 15 26 8 14 1011.7 1011.7 0.0
27/11:00am 25.3 25.0 18.2 64 4.5 E 17 24 9 13 1013.2 1013.2 0.0
27/10:30am 24.9 25.2 17.9 65 4.4 E 13 22 7 12 1013.5 1013.5 0.0
27/10:00am 24.6 25.7 18.1 67 4.1 ESE 9 15 5 8 1013.7 1013.7 0.0
27/09:30am 24.0 24.8 18.2 70 3.6 ESE 11 19 6 10 1012.8 1012.8 0.0
27/09:00am 24.2 24.4 18.6 71 3.5 SE 15 22 8 12 1012.4 1012.4 3.0
27/08:30am 22.9 23.2 18.0 74 3.1 ESE 13 22 7 12 1012.4 1012.4 3.0
27/08:00am 22.6 23.7 17.9 75 2.9 E 9 17 5 9 1012.6 1012.6 3.0
27/07:30am 22.4 22.2 17.5 74 3.0 E 15 28 8 15 1012.3 1012.3 3.0
27/07:00am 22.4 21.8 17.5 74 3.0 E 17 26 9 14 1011.6 1011.6 3.0
27/06:30am 22.8 22.5 17.3 71 3.4 E 15 30 8 16 1011.9 1011.9 3.0
27/06:00am 22.4 23.6 17.3 73 3.1 E 7 15 4 8 1011.3 1011.3 3.0
27/05:30am 22.3 20.9 17.0 72 3.2 E 20 33 11 18 1010.6 1010.6 3.0
27/05:00am 22.4 21.3 17.3 73 3.1 E 19 30 10 16 1011.1 1011.1 3.0
27/04:30am 22.7 21.5 17.4 72 3.3 E 20 43 11 23 1011.0 1011.0 3.0
27/04:00am 22.6 21.5 17.7 74 3.0 E 20 37 11 20 1011.1 1011.1 3.0
27/03:30am 23.0 22.1 18.1 74 3.1 E 20 33 11 18 1011.5 1011.5 2.4
27/03:15am 24.4 22.6 17.9 67 4.1 ENE 24 33 13 18 1012.9 1012.9 0.6
27/03:00am 24.1 22.4 17.1 65 4.3 E 22 33 12 18 1010.7 1010.7 0.6
27/02:30am 24.7 22.9 16.9 62 4.8 ENE 22 35 12 19 1011.0 1011.0 0.6
27/02:00am 24.3 22.6 17.1 64 4.5 ENE 22 39 12 21 1011.2 1011.2 0.6
27/01:30am 23.6 21.7 17.6 69 3.7 E 24 33 13 18 1011.2 1011.2 0.6
27/01:24am 23.7 22.7 17.9 70 3.6 E 20 33 11 18 1011.4 1011.4 0.6
27/01:00am 23.8 24.6 18.2 71 3.5 E 11 19 6 10 1013.4 1013.4 0.4
27/12:30am 24.1 25.5 18.7 72 3.4 ESE 9 19 5 10 1013.0 1013.0 0.4
27/12:00am 24.8 26.9 18.0 66 4.3 ESE 4 9 2 5 1013.4 1013.4 0.0
 
Date/Time
WST
Temp
°C
App
Temp
°C
Dew
Point
°C
Rel
Hum
%
Delta-T
°C
Wind Press
QNH
hPa
Press
MSL
hPa
Rain since
9am
mm
Dir  Spd
km/h
Gust
km/h
Spd
kts
Gust
kts
26/11:30pm 24.7 24.7 18.2 67 4.1 SE 15 22 8 12 1011.8 1011.8 0.0
26/11:00pm 24.8 25.7 18.3 67 4.1 SSE 11 20 6 11 1012.5 1012.5 0.0
26/10:30pm 25.7 24.7 17.6 61 5.1 SE 19 26 10 14 1012.9 1012.9 0.0
26/10:00pm 25.3 24.5 18.0 64 4.6 SE 19 24 10 13 1012.7 1012.7 0.0
26/09:30pm 25.4 24.8 17.6 62 4.9 SE 17 26 9 14 1012.7 1012.7 0.0
26/09:00pm 25.6 24.4 17.5 61 5.1 ESE 20 30 11 16 1012.7 1012.7 0.0
26/08:30pm 25.8 24.8 18.0 62 4.9 ESE 20 35 11 19 1013.1 1013.1 0.0
26/08:00pm 25.8 25.0 18.0 62 4.9 ESE 19 30 10 16 1013.8 1013.8 0.0
26/07:30pm 26.1 25.4 18.2 61 5.0 ESE 19 28 10 15 1013.2 1013.2 0.0
26/07:00pm 26.4 26.5 18.3 61 5.1 E 15 24 8 13 1013.3 1013.3 0.0
26/06:30pm 27.1 27.6 18.4 59 5.5 E 13 24 7 13 1013.8 1013.8 0.0
26/06:00pm 27.8 28.2 18.2 56 6.1 ENE 13 24 7 13 1014.1 1014.1 0.0
26/05:30pm 27.9 27.9 18.0 55 6.3 E 15 24 8 13 1013.7 1013.7 0.0
26/05:00pm 28.2 27.8 18.0 54 6.5 ENE 17 28 9 15 1014.4 1014.4 0.0
26/04:30pm 29.2 27.8 18.0 51 7.1 ENE 22 32 12 17 1014.4 1014.4 0.0
26/04:00pm 29.6 29.0 18.4 51 7.2 ENE 19 33 10 18 1014.5 1014.5 0.0
26/03:30pm 29.1 28.2 18.2 51 7.0 ENE 20 35 11 19 1014.5 1014.5 0.0
26/03:00pm 29.1 28.4 18.2 51 7.0 E 19 32 10 17 1014.6 1014.6 0.0
26/02:30pm 29.9 29.4 19.0 52 7.1 SE 20 30 11 16 1014.5 1014.5 0.0
26/02:00pm 30.4 30.6 19.4 51 7.2 E 17 24 9 13 1014.5 1014.5 0.0
26/01:30pm 28.3 28.4 19.2 57 5.9 ESE 17 28 9 15 1014.6 1014.6 0.0
26/01:00pm 27.2 27.2 19.0 61 5.3 ESE 17 24 9 13 1014.9 1014.9 0.0
26/12:30pm 28.5 27.0 16.7 48 7.4 ESE 20 33 11 18 1014.0 1014.0 0.0
26/12:00pm 28.3 26.9 16.6 49 7.3 ESE 19 35 10 19 1014.3 1014.3 0.0
26/11:30am 26.4 25.3 16.3 53 6.2 ESE 17 28 9 15 1014.7 1014.7 0.0
26/11:00am 26.3 23.5 16.3 54 6.1 ESE 26 37 14 20 1014.7 1014.7 0.0
26/10:30am 26.3 24.0 15.7 52 6.5 ESE 22 39 12 21 1014.9 1014.9 0.0
26/10:00am 26.3 24.1 16.0 53 6.3 ESE 22 35 12 19 1014.8 1014.8 0.0
26/09:30am 25.0 22.4 15.9 57 5.5 ESE 24 37 13 20 1014.9 1014.9 0.0
26/09:00am 24.1 21.8 15.6 59 5.1 ESE 22 35 12 19 1014.6 1014.6 0.0
26/08:30am 23.6 21.4 15.9 62 4.7 ESE 22 39 12 21 1014.5 1014.5 0.0
26/08:00am 22.5 20.2 15.8 66 4.0 E 22 33 12 18 1014.7 1014.7 0.0
26/07:30am 22.3 20.5 15.9 67 3.9 ESE 20 37 11 20 1014.8 1014.8 0.0
26/07:00am 21.5 19.9 16.0 71 3.3 ESE 19 32 10 17 1014.9 1014.9 0.0
26/06:30am 21.1 19.8 15.9 72 3.1 ESE 17 24 9 13 1014.6 1014.6 0.0
26/06:00am 21.1 20.2 15.9 72 3.1 ESE 15 26 8 14 1014.4 1014.4 0.0
26/05:30am 21.2 20.2 15.7 71 3.3 ESE 15 22 8 12 1014.3 1014.3 0.0
26/05:00am 21.2 21.0 15.7 71 3.3 ESE 11 20 6 11 1014.0 1014.0 0.0
26/04:30am 21.4 21.3 15.9 71 3.3 ESE 11 19 6 10 1013.6 1013.6 0.0
26/04:00am 21.4 20.8 15.7 70 3.4 ESE 13 20 7 11 1013.3 1013.3 0.0
26/03:30am 21.4 21.2 15.7 70 3.4 ESE 11 19 6 10 1013.1 1013.1 0.0
26/03:00am 21.6 21.1 15.9 70 3.4 ESE 13 20 7 11 1013.2 1013.2 0.0
26/02:30am 21.7 20.9 16.0 70 3.4 ESE 15 26 8 14 1013.2 1013.2 0.0
26/02:00am 21.9 20.7 16.0 69 3.6 ESE 17 26 9 14 1013.4 1013.4 0.0
26/01:30am 22.1 20.9 16.1 69 3.6 ESE 17 26 9 14 1013.6 1013.6 0.0
26/01:00am 22.4 22.0 16.2 68 3.8 ESE 13 20 7 11 1014.0 1014.0 0.0
26/12:30am 22.5 21.8 16.3 68 3.8 ESE 15 22 8 12 1014.3 1014.3 0.0
26/12:00am 22.8 21.7 16.4 67 3.9 ESE 17 26 9 14 1014.2 1014.2 0.0

Other formats

Comma delimited format used in spreadsheet applications
http://www.bom.gov.au/fwo/IDW60801/IDW60801.94605.axf

JavaScript Object Notation format (JSON) in row-major order
http://www.bom.gov.au/fwo/IDW60801/IDW60801.94605.json

Data quality

Most of these data are generated automatically and are frequently updated. Quality checks on data are not normally performed. It is possible for incorrect values to appear. Refer to information at About Latest Weather Observations and please check the disclaimer before using these data.